Time;durP1;ratioP1;P1;durP2;ratioP2;P2;SDS_P1;SDS_P2;PMS_P1;PMS_P2;Temp;Humidity;BMP_temperature;BMP_pressure;BME280_temperature;BME280_humidity;BME280_pressure;Samples;Min_cycle;Max_cycle;Signal;HPM_P1;HPM_P2
2021/06/17 00:01:28;;;;;;;26.33;24.40;;;20.50;99.90;;;;;;5115201;27;20461;-73
2021/06/17 00:03:55;;;;;;;27.53;24.70;;;20.50;99.90;;;;;;5115417;27;20463;-75
2021/06/17 00:06:22;;;;;;;27.03;24.73;;;20.50;99.90;;;;;;5113474;27;20868;-73
2021/06/17 00:08:48;;;;;;;25.97;23.93;;;20.40;99.90;;;;;;5108388;27;20724;-74
2021/06/17 00:11:15;;;;;;;31.33;26.50;;;20.40;99.90;;;;;;5112228;27;20464;-76
2021/06/17 00:13:42;;;;;;;28.07;25.53;;;20.40;99.90;;;;;;5108426;28;20472;-74
2021/06/17 00:16:11;;;;;;;26.33;24.03;;;20.40;99.90;;;;;;5114237;27;21025;-74
2021/06/17 00:18:39;;;;;;;25.40;23.40;;;20.50;99.90;;;;;;5116080;27;20448;-74
2021/06/17 00:21:06;;;;;;;25.20;23.30;;;20.40;99.90;;;;;;5114830;27;20453;-73
2021/06/17 00:23:34;;;;;;;27.10;25.10;;;20.40;99.90;;;;;;5109111;27;20468;-74
2021/06/17 00:26:01;;;;;;;26.77;24.63;;;20.30;99.90;;;;;;5117035;27;20815;-75
2021/06/17 00:28:29;;;;;;;27.10;24.33;;;20.30;99.90;;;;;;5114290;27;20484;-74
2021/06/17 00:30:56;;;;;;;27.40;25.40;;;20.20;99.90;;;;;;5115484;27;20485;-74
2021/06/17 00:33:25;;;;;;;25.00;23.07;;;20.20;99.90;;;;;;5111775;27;20826;-74
2021/06/17 00:35:52;;;;;;;30.80;25.60;;;20.10;99.90;;;;;;5109080;27;20977;-75
2021/06/17 00:38:19;;;;;;;43.60;26.93;;;20.10;99.90;;;;;;5123496;27;20857;-73
2021/06/17 00:40:46;;;;;;;46.17;26.07;;;20.30;99.90;;;;;;5118742;27;20449;-73
2021/06/17 00:43:13;;;;;;;43.57;25.60;;;20.40;99.90;;;;;;5116145;27;20460;-75
2021/06/17 00:45:42;;;;;;;38.00;23.80;;;20.60;99.90;;;;;;5120312;27;20453;-73
2021/06/17 00:48:11;;;;;;;26.00;23.00;;;20.70;99.90;;;;;;5114621;27;20460;-74
2021/06/17 00:50:42;;;;;;;33.23;21.40;;;20.90;99.90;;;;;;5113998;27;20561;-73
2021/06/17 00:53:11;;;;;;;23.27;20.80;;;21.00;99.90;;;;;;5107561;28;20978;-74
2021/06/17 00:55:39;;;;;;;23.90;21.10;;;21.10;99.90;;;;;;5115165;27;20491;-73
2021/06/17 00:58:06;;;;;;;20.93;19.20;;;21.20;99.90;;;;;;5112350;27;20479;-75
2021/06/17 01:00:33;;;;;;;24.17;19.13;;;21.30;99.90;;;;;;5114502;27;20452;-74
2021/06/17 01:03:00;;;;;;;21.30;19.17;;;21.30;99.90;;;;;;5114439;27;20457;-73
2021/06/17 01:05:27;;;;;;;22.37;19.27;;;21.20;99.90;;;;;;5113154;27;20670;-75
2021/06/17 01:08:06;;;;;;;21.80;18.97;;;21.30;99.90;;;;;;5108137;28;20476;-74
2021/06/17 01:10:41;;;;;;;21.70;19.37;;;21.30;99.90;;;;;;5120723;27;20491;-74
2021/06/17 01:13:14;;;;;;;20.43;18.20;;;21.30;99.90;;;;;;5116420;27;20563;-74
2021/06/17 01:15:48;;;;;;;20.40;18.30;;;21.20;99.90;;;;;;5113652;27;20448;-73
2021/06/17 01:18:17;;;;;;;30.63;19.50;;;21.30;99.90;;;;;;5118646;27;20968;-73
2021/06/17 01:20:50;;;;;;;20.57;18.67;;;21.30;99.90;;;;;;5111891;27;20464;-75
2021/06/17 01:23:57;;;;;;;23.50;19.17;;;21.30;99.90;;;;;;5114323;27;20461;-73
2021/06/17 01:26:31;;;;;;;20.17;18.30;;;21.30;99.90;;;;;;5116434;27;20962;-73
2021/06/17 01:29:01;;;;;;;18.80;16.90;;;21.30;99.90;;;;;;5115901;27;20503;-74
2021/06/17 01:31:33;;;;;;;19.60;17.50;;;21.30;99.90;;;;;;5113288;27;20461;-73
2021/06/17 01:34:01;;;;;;;18.20;16.63;;;21.20;99.90;;;;;;5111183;27;20469;-74
2021/06/17 01:36:33;;;;;;;19.50;16.23;;;21.20;99.90;;;;;;5115346;27;20465;-74
2021/06/17 01:39:02;;;;;;;17.80;15.97;;;21.10;99.90;;;;;;5109027;27;20464;-73
2021/06/17 01:41:33;;;;;;;16.73;15.30;;;21.10;99.90;;;;;;5120871;27;20460;-73
2021/06/17 01:44:02;;;;;;;17.50;16.00;;;21.00;99.90;;;;;;5106661;28;20457;-74
2021/06/17 01:46:32;;;;;;;18.50;16.70;;;20.90;99.90;;;;;;5115145;27;20464;-73
2021/06/17 01:49:01;;;;;;;18.33;16.77;;;21.00;99.90;;;;;;5110281;27;20461;-73
2021/06/17 01:51:31;;;;;;;17.83;16.17;;;21.00;99.90;;;;;;5117945;27;20511;-75
2021/06/17 01:53:58;;;;;;;17.77;16.30;;;21.00;99.90;;;;;;5107860;28;21947;-74
2021/06/17 01:56:26;;;;;;;19.00;17.10;;;21.00;99.90;;;;;;5114930;27;20500;-74
2021/06/17 01:58:55;;;;;;;19.23;17.30;;;20.90;99.90;;;;;;5115067;28;20508;-74
2021/06/17 02:01:29;;;;;;;17.10;15.63;;;20.90;99.90;;;;;;5110668;28;20546;-74
2021/06/17 02:03:57;;;;;;;18.27;16.83;;;20.80;99.90;;;;;;5114124;28;20456;-74
2021/06/17 02:06:26;;;;;;;17.80;16.13;;;20.80;99.90;;;;;;5111930;28;20449;-74
2021/06/17 02:08:55;;;;;;;19.03;17.23;;;20.70;99.90;;;;;;5110288;28;20918;-74
2021/06/17 02:11:24;;;;;;;19.00;17.40;;;20.70;99.90;;;;;;5114105;28;20488;-75
2021/06/17 02:13:52;;;;;;;18.13;16.60;;;20.70;99.90;;;;;;5107069;28;20503;-75
2021/06/17 02:16:21;;;;;;;17.53;16.43;;;20.60;99.90;;;;;;5114112;28;20873;-74
2021/06/17 02:18:50;;;;;;;18.40;16.60;;;20.60;99.90;;;;;;5111457;28;20453;-74
2021/06/17 02:21:19;;;;;;;17.90;16.60;;;20.60;99.90;;;;;;5117696;28;20467;-74
2021/06/17 02:23:51;;;;;;;18.43;16.63;;;20.60;99.90;;;;;;5115817;28;20461;-73
2021/06/17 02:26:19;;;;;;;23.10;17.30;;;20.60;99.90;;;;;;5112908;28;20821;-73
2021/06/17 02:28:49;;;;;;;18.70;17.10;;;20.70;99.90;;;;;;5113873;28;20816;-73
2021/06/17 02:31:26;;;;;;;18.93;17.40;;;20.70;99.90;;;;;;5114658;28;20485;-74
2021/06/17 02:33:55;;;;;;;20.67;16.60;;;20.70;99.90;;;;;;5114159;28;20460;-74
2021/06/17 02:36:25;;;;;;;18.20;16.80;;;20.70;99.90;;;;;;5117039;27;21110;-73
2021/06/17 02:38:56;;;;;;;20.70;16.50;;;20.70;99.90;;;;;;5116512;27;20506;-74
2021/06/17 02:41:25;;;;;;;18.00;16.33;;;20.70;99.90;;;;;;5122162;27;21022;-74
2021/06/17 02:43:55;;;;;;;18.50;16.90;;;20.70;99.90;;;;;;5115180;27;20656;-73
2021/06/17 02:46:23;;;;;;;17.73;16.40;;;20.70;99.90;;;;;;5118323;27;20461;-73
2021/06/17 02:48:51;;;;;;;17.97;16.47;;;20.70;99.90;;;;;;5110395;28;20460;-74
2021/06/17 02:51:20;;;;;;;18.50;16.70;;;20.80;99.90;;;;;;5118121;27;20496;-73
2021/06/17 02:53:48;;;;;;;19.57;17.90;;;20.80;99.90;;;;;;5113640;27;20460;-75
2021/06/17 02:56:20;;;;;;;17.37;15.80;;;20.80;99.90;;;;;;5115988;27;20506;-74
2021/06/17 02:59:00;;;;;;;19.40;17.70;;;20.80;99.90;;;;;;5116734;27;20956;-73
2021/06/17 03:01:34;;;;;;;18.20;16.50;;;20.80;99.90;;;;;;5117325;27;20456;-73
2021/06/17 03:04:07;;;;;;;18.30;16.60;;;20.70;99.90;;;;;;5122977;27;20460;-75
2021/06/17 03:06:40;;;;;;;18.53;16.60;;;20.70;99.90;;;;;;5125156;27;20456;-72
2021/06/17 03:09:13;;;;;;;18.70;17.00;;;20.70;99.90;;;;;;5117245;27;20839;-73
2021/06/17 03:11:43;;;;;;;19.10;17.00;;;20.70;99.90;;;;;;5111019;27;20488;-73
2021/06/17 03:14:13;;;;;;;18.57;17.17;;;20.70;99.90;;;;;;5120421;27;20480;-72
2021/06/17 03:16:43;;;;;;;19.53;17.83;;;20.60;99.90;;;;;;5113953;27;20481;-73
2021/06/17 03:19:12;;;;;;;18.70;17.00;;;20.60;99.90;;;;;;5123850;27;20546;-73
2021/06/17 03:21:44;;;;;;;18.93;16.93;;;20.70;99.90;;;;;;5112641;27;20457;-72
2021/06/17 03:24:12;;;;;;;19.43;17.27;;;20.70;99.90;;;;;;5112510;27;20452;-74
2021/06/17 03:26:41;;;;;;;19.37;17.60;;;20.70;99.90;;;;;;5122886;27;21153;-74
2021/06/17 03:29:10;;;;;;;18.13;16.60;;;20.60;99.90;;;;;;5117085;27;20460;-74
2021/06/17 03:31:39;;;;;;;24.03;18.27;;;20.60;99.90;;;;;;5115541;27;20496;-75
2021/06/17 03:34:07;;;;;;;18.53;16.70;;;20.60;99.90;;;;;;5115167;27;20457;-75
2021/06/17 03:36:35;;;;;;;17.93;15.97;;;20.60;99.90;;;;;;5117553;27;20926;-75
2021/06/17 03:39:06;;;;;;;19.60;16.87;;;20.60;99.90;;;;;;5109997;28;20966;-73
2021/06/17 03:41:34;;;;;;;22.03;18.40;;;20.60;99.90;;;;;;5118210;27;20456;-73
2021/06/17 03:44:01;;;;;;;18.13;16.80;;;20.60;99.90;;;;;;5115464;27;20974;-75
2021/06/17 03:46:30;;;;;;;20.00;17.23;;;20.60;99.90;;;;;;5117786;27;20461;-75
2021/06/17 03:48:59;;;;;;;19.53;17.60;;;20.50;99.90;;;;;;5113024;27;21216;-73
2021/06/17 03:51:26;;;;;;;18.80;16.87;;;20.50;99.90;;;;;;5117235;27;20480;-75
2021/06/17 03:53:56;;;;;;;19.80;17.80;;;20.50;99.90;;;;;;5114068;27;20984;-73
2021/06/17 03:56:25;;;;;;;18.90;17.27;;;20.50;99.90;;;;;;5113783;27;20484;-73
2021/06/17 03:58:53;;;;;;;17.63;16.53;;;20.60;99.90;;;;;;5112583;27;20465;-73
2021/06/17 04:01:21;;;;;;;18.93;17.30;;;20.70;99.90;;;;;;5111547;27;20476;-75
2021/06/17 04:03:50;;;;;;;18.57;16.80;;;20.70;99.90;;;;;;5116808;27;20461;-75
2021/06/17 04:06:18;;;;;;;19.80;16.50;;;20.60;99.90;;;;;;5114345;27;20466;-75
2021/06/17 04:08:48;;;;;;;18.23;16.70;;;20.60;99.90;;;;;;5115706;27;20659;-74
2021/06/17 04:11:16;;;;;;;22.43;17.53;;;20.60;99.90;;;;;;5116278;27;20493;-74
2021/06/17 04:13:45;;;;;;;18.73;17.03;;;20.70;99.90;;;;;;5112910;27;20469;-73
2021/06/17 04:16:17;;;;;;;19.27;17.63;;;20.70;99.90;;;;;;5113868;27;20668;-73
2021/06/17 04:18:46;;;;;;;18.17;16.43;;;20.70;99.90;;;;;;5110456;27;20493;-74
2021/06/17 04:21:15;;;;;;;18.87;17.50;;;20.70;99.90;;;;;;5108623;28;20493;-74
2021/06/17 04:23:45;;;;;;;17.80;16.70;;;20.70;99.90;;;;;;5112806;27;20489;-75
2021/06/17 04:26:17;;;;;;;18.23;16.53;;;20.70;99.90;;;;;;5114383;27;20457;-74
2021/06/17 04:28:45;;;;;;;18.97;17.37;;;20.80;99.90;;;;;;5118376;27;20461;-73
2021/06/17 04:31:15;;;;;;;21.10;17.83;;;20.80;99.90;;;;;;5110901;27;21001;-74
2021/06/17 04:33:44;;;;;;;18.97;16.93;;;20.90;99.90;;;;;;5113495;27;20448;-74
2021/06/17 04:36:12;;;;;;;18.70;16.97;;;20.90;99.90;;;;;;5114242;27;20464;-73
2021/06/17 04:38:39;;;;;;;19.27;17.70;;;21.00;99.90;;;;;;5114176;27;21005;-73
2021/06/17 04:41:07;;;;;;;20.13;18.30;;;21.10;99.90;;;;;;5116868;27;20456;-74
2021/06/17 04:43:35;;;;;;;22.57;18.17;;;21.20;99.90;;;;;;5108865;27;20943;-74
2021/06/17 04:46:04;;;;;;;26.27;18.33;;;21.30;99.90;;;;;;5127344;27;20444;-73
2021/06/17 04:48:34;;;;;;;18.73;16.93;;;21.40;99.90;;;;;;5113188;27;20473;-74
2021/06/17 04:51:02;;;;;;;19.17;17.33;;;21.70;99.90;;;;;;5116496;27;20533;-75
2021/06/17 04:53:30;;;;;;;26.33;17.70;;;22.00;99.90;;;;;;5113959;27;20821;-73
2021/06/17 04:55:57;;;;;;;18.27;16.83;;;22.20;99.90;;;;;;5112887;27;20475;-75
2021/06/17 04:58:27;;;;;;;21.37;17.40;;;22.50;99.90;;;;;;5117030;27;20483;-75
2021/06/17 05:00:54;;;;;;;18.20;16.67;;;22.70;99.90;;;;;;5119465;27;20456;-75
2021/06/17 05:03:22;;;;;;;19.77;17.87;;;23.00;99.90;;;;;;5116169;27;20456;-74
2021/06/17 05:05:51;;;;;;;19.33;17.60;;;23.10;99.90;;;;;;5113224;27;20989;-75
2021/06/17 05:11:02;;;;;;;20.43;18.53;;;23.30;99.90;;;;;;5114154;27;20482;-75
2021/06/17 05:13:30;;;;;;;21.90;17.70;;;23.50;99.90;;;;;;5112443;27;20462;-75
2021/06/17 05:15:59;;;;;;;20.00;17.90;;;23.70;99.90;;;;;;5121277;27;20472;-75
2021/06/17 05:18:28;;;;;;;19.27;17.43;;;24.00;99.90;;;;;;5115646;27;20459;-74
2021/06/17 05:20:56;;;;;;;18.70;17.03;;;24.20;99.90;;;;;;5113467;27;20479;-74
2021/06/17 05:23:24;;;;;;;18.70;16.93;;;24.50;99.90;;;;;;5116547;27;20448;-75
2021/06/17 05:25:52;;;;;;;19.80;17.47;;;24.70;99.90;;;;;;5111527;27;20468;-74
2021/06/17 05:28:21;;;;;;;19.53;17.73;;;24.80;99.90;;;;;;5111963;27;20465;-73
2021/06/17 05:30:49;;;;;;;20.33;17.20;;;25.00;99.90;;;;;;5111853;27;20834;-73
2021/06/17 05:33:16;;;;;;;37.63;17.37;;;25.00;99.90;;;;;;5116190;27;20450;-74
2021/06/17 05:35:46;;;;;;;21.97;17.07;;;25.10;99.90;;;;;;5115519;27;20461;-74
2021/06/17 05:38:13;;;;;;;20.43;17.60;;;25.00;99.90;;;;;;5113772;27;20457;-74
2021/06/17 05:40:40;;;;;;;20.57;18.07;;;25.00;99.90;;;;;;5115660;27;20462;-73
2021/06/17 05:43:06;;;;;;;27.23;17.50;;;25.00;99.90;;;;;;5119053;27;20459;-73
2021/06/17 05:45:35;;;;;;;30.37;17.53;;;25.00;99.90;;;;;;5112514;27;20456;-74
2021/06/17 05:48:02;;;;;;;28.07;18.63;;;24.90;99.90;;;;;;5114640;27;20453;-74
2021/06/17 05:50:30;;;;;;;24.50;17.70;;;24.80;99.90;;;;;;5112379;27;20488;-75
2021/06/17 05:52:58;;;;;;;25.70;16.93;;;25.00;99.90;;;;;;5114788;27;20461;-74
2021/06/17 05:55:26;;;;;;;32.83;18.33;;;25.10;99.90;;;;;;5110206;27;20484;-74
2021/06/17 05:57:52;;;;;;;24.83;18.40;;;25.20;99.90;;;;;;5110891;28;20460;-74
2021/06/17 06:00:19;;;;;;;20.30;18.40;;;25.10;99.90;;;;;;5109813;28;20552;-74
2021/06/17 06:02:46;;;;;;;19.37;17.20;;;25.10;99.90;;;;;;5106863;28;20469;-75
2021/06/17 06:05:13;;;;;;;19.23;17.33;;;25.30;99.90;;;;;;5112376;28;20514;-72
2021/06/17 06:07:40;;;;;;;19.63;18.03;;;25.30;99.90;;;;;;5108367;28;20461;-75
2021/06/17 06:10:11;;;;;;;20.03;17.47;;;25.30;99.90;;;;;;5114223;27;20456;-73
2021/06/17 06:12:38;;;;;;;26.23;18.03;;;25.30;99.90;;;;;;5115087;27;20489;-74
2021/06/17 06:15:07;;;;;;;23.93;17.80;;;25.30;99.90;;;;;;5118450;27;20972;-74
2021/06/17 06:17:34;;;;;;;18.73;17.20;;;25.10;99.90;;;;;;5115653;27;20829;-73
2021/06/17 06:20:01;;;;;;;24.93;18.00;;;25.10;99.90;;;;;;5120061;27;21025;-75
2021/06/17 06:22:28;;;;;;;34.30;18.73;;;25.00;99.90;;;;;;5120538;27;20476;-73
2021/06/17 06:24:55;;;;;;;30.10;19.43;;;25.00;99.90;;;;;;5117260;27;20707;-73
2021/06/17 06:27:24;;;;;;;32.23;17.67;;;25.00;99.90;;;;;;5113203;27;20456;-74
2021/06/17 06:29:51;;;;;;;23.37;18.70;;;25.00;99.90;;;;;;5117774;27;20456;-75
2021/06/17 06:32:17;;;;;;;28.17;18.07;;;25.10;99.90;;;;;;5116697;27;20488;-75
2021/06/17 06:34:44;;;;;;;31.17;18.53;;;25.30;99.90;;;;;;5120417;27;20475;-75
2021/06/17 06:37:11;;;;;;;27.60;18.17;;;25.40;99.90;;;;;;5117077;27;20452;-73
2021/06/17 06:39:38;;;;;;;20.17;18.00;;;25.60;99.90;;;;;;5115007;27;20462;-73
2021/06/17 06:42:06;;;;;;;30.60;18.37;;;25.60;99.90;;;;;;5119130;27;20464;-74
2021/06/17 06:44:34;;;;;;;30.07;18.40;;;25.90;99.90;;;;;;5124063;27;20847;-75
2021/06/17 06:47:01;;;;;;;20.97;18.70;;;26.10;99.90;;;;;;5117552;27;20961;-74
2021/06/17 06:49:28;;;;;;;22.03;18.73;;;26.40;99.90;;;;;;5118949;27;20575;-74
2021/06/17 06:51:55;;;;;;;27.63;19.03;;;26.40;99.90;;;;;;5113021;27;20773;-74
2021/06/17 06:54:22;;;;;;;39.87;18.97;;;26.60;99.90;;;;;;5117873;27;20954;-75
2021/06/17 06:56:48;;;;;;;32.97;18.23;;;26.60;99.90;;;;;;5115980;27;20859;-74
2021/06/17 06:59:16;;;;;;;24.00;17.20;;;26.70;99.90;;;;;;5114556;27;20461;-74
2021/06/17 07:01:46;;;;;;;29.53;17.77;;;26.80;99.90;;;;;;5120873;27;20471;-74
2021/06/17 07:04:12;;;;;;;19.40;17.80;;;26.90;99.90;;;;;;5120243;27;20458;-73
2021/06/17 07:06:40;;;;;;;20.90;17.57;;;27.20;99.90;;;;;;5116988;27;20815;-73
2021/06/17 07:09:07;;;;;;;21.43;17.60;;;27.60;99.90;;;;;;5114903;27;20461;-73
2021/06/17 07:11:34;;;;;;;20.33;17.50;;;27.80;99.90;;;;;;5113702;27;20990;-73
2021/06/17 07:14:00;;;;;;;24.97;17.70;;;28.10;99.90;;;;;;5110650;27;20795;-74
2021/06/17 07:16:27;;;;;;;20.23;18.17;;;28.40;99.90;;;;;;5112524;27;20585;-74
2021/06/17 07:18:55;;;;;;;19.40;17.50;;;28.60;99.90;;;;;;5110723;27;20464;-73
2021/06/17 07:21:22;;;;;;;24.90;18.27;;;29.00;99.90;;;;;;5109868;27;20739;-75
2021/06/17 07:23:51;;;;;;;24.77;17.57;;;29.60;99.90;;;;;;5113446;27;20452;-73
2021/06/17 07:26:20;;;;;;;19.47;17.87;;;29.80;99.90;;;;;;5105109;27;20972;-74
2021/06/17 07:28:48;;;;;;;19.17;17.20;;;29.90;99.90;;;;;;5110899;27;20463;-74
2021/06/17 07:31:15;;;;;;;19.43;17.43;;;30.00;99.90;;;;;;5115160;27;20479;-73
2021/06/17 07:33:41;;;;;;;24.13;18.20;;;29.90;99.90;;;;;;5110172;27;20483;-73
2021/06/17 07:36:12;;;;;;;19.17;17.13;;;29.90;99.90;;;;;;5107486;27;20469;-74
2021/06/17 07:38:39;;;;;;;19.97;17.97;;;29.80;99.90;;;;;;5106605;27;20461;-74
2021/06/17 07:41:06;;;;;;;20.50;17.87;;;29.60;99.90;;;;;;5115496;27;20460;-74
2021/06/17 07:43:33;;;;;;;19.60;18.00;;;29.60;99.90;;;;;;5111682;27;20452;-73
2021/06/17 07:46:01;;;;;;;19.00;17.50;;;29.60;99.90;;;;;;5109277;27;20461;-74
2021/06/17 07:48:28;;;;;;;18.97;17.13;;;29.50;99.90;;;;;;5109032;27;20457;-75
2021/06/17 07:50:55;;;;;;;19.50;17.53;;;29.50;99.90;;;;;;5111800;27;20464;-74
2021/06/17 07:53:24;;;;;;;19.00;17.07;;;29.70;99.90;;;;;;5116127;27;20831;-74
2021/06/17 07:55:51;;;;;;;20.13;17.77;;;29.90;99.90;;;;;;5109726;27;20489;-73
2021/06/17 07:58:18;;;;;;;28.60;19.07;;;29.90;99.90;;;;;;5107983;27;20460;-73
2021/06/17 08:00:45;;;;;;;21.40;17.47;;;29.70;99.90;;;;;;5106651;27;20510;-74
2021/06/17 08:03:12;;;;;;;18.00;16.90;;;30.00;99.90;;;;;;5111693;27;20520;-73
2021/06/17 08:05:39;;;;;;;18.33;16.80;;;30.40;99.90;;;;;;5113671;27;20488;-73
2021/06/17 08:08:07;;;;;;;17.80;16.60;;;31.00;99.90;;;;;;5110705;27;20468;-73
2021/06/17 08:10:35;;;;;;;18.13;16.83;;;31.60;99.90;;;;;;5113832;27;20461;-75
2021/06/17 08:13:02;;;;;;;18.20;16.87;;;32.20;99.00;;;;;;5104030;28;20492;-75
2021/06/17 08:15:30;;;;;;;18.47;17.37;;;32.70;98.20;;;;;;5106703;27;20452;-74
2021/06/17 08:17:57;;;;;;;19.40;17.90;;;33.20;98.10;;;;;;5103577;28;20484;-74
2021/06/17 08:20:24;;;;;;;19.23;17.83;;;33.10;97.70;;;;;;5105762;27;20467;-73
2021/06/17 08:22:51;;;;;;;20.10;18.20;;;33.00;97.50;;;;;;5107401;27;20962;-75
2021/06/17 08:25:18;;;;;;;19.30;17.77;;;33.50;96.80;;;;;;5112775;27;20456;-74
2021/06/17 08:27:46;;;;;;;18.50;17.20;;;33.30;97.30;;;;;;5112181;27;20457;-75
2021/06/17 08:30:17;;;;;;;18.70;17.43;;;33.50;97.30;;;;;;5112636;27;20457;-75
2021/06/17 08:32:44;;;;;;;19.33;17.70;;;34.10;96.50;;;;;;5111049;27;20495;-74
2021/06/17 08:35:13;;;;;;;18.07;16.77;;;35.10;95.40;;;;;;5110059;27;20468;-75
2021/06/17 08:37:40;;;;;;;17.87;16.87;;;35.90;93.60;;;;;;5108736;27;20489;-74
2021/06/17 08:40:08;;;;;;;16.83;15.83;;;35.80;92.50;;;;;;5109299;27;20460;-74
2021/06/17 08:42:35;;;;;;;17.80;16.53;;;35.90;90.40;;;;;;5104535;27;20473;-73
2021/06/17 08:45:06;;;;;;;18.07;16.87;;;35.50;86.00;;;;;;5114516;27;20461;-74
2021/06/17 08:47:35;;;;;;;18.17;17.17;;;35.40;86.20;;;;;;5113545;27;20484;-74
2021/06/17 08:50:03;;;;;;;17.33;16.13;;;35.40;85.70;;;;;;5111760;27;20932;-74
2021/06/17 08:52:35;;;;;;;17.10;16.00;;;35.70;84.30;;;;;;5110241;27;20488;-74
2021/06/17 08:55:17;;;;;;;16.87;15.97;;;35.80;82.40;;;;;;5107516;27;20469;-75
2021/06/17 08:57:46;;;;;;;17.47;16.27;;;35.60;82.00;;;;;;5114263;27;20449;-74
2021/06/17 09:00:38;;;;;;;17.90;16.70;;;35.70;82.90;;;;;;5105586;27;20952;-75
2021/06/17 09:03:08;;;;;;;17.50;16.50;;;36.20;80.50;;;;;;5118415;27;20452;-73
2021/06/17 09:05:38;;;;;;;17.00;16.20;;;35.50;80.70;;;;;;5108775;27;20461;-75
2021/06/17 09:08:06;;;;;;;18.63;17.00;;;36.30;78.70;;;;;;5112897;27;20877;-74
2021/06/17 09:10:33;;;;;;;19.17;17.87;;;36.00;76.80;;;;;;5112661;27;20467;-73
2021/06/17 09:13:02;;;;;;;19.77;18.00;;;36.50;75.70;;;;;;5108678;27;20498;-74
2021/06/17 09:15:39;;;;;;;18.40;17.50;;;37.30;75.40;;;;;;5112446;27;20775;-74
2021/06/17 09:18:14;;;;;;;18.27;16.77;;;37.80;73.50;;;;;;5110644;27;20467;-74
2021/06/17 09:20:49;;;;;;;18.47;17.27;;;37.10;73.30;;;;;;5107268;27;20949;-74
2021/06/17 09:23:26;;;;;;;18.90;17.77;;;36.70;74.00;;;;;;5107694;27;20492;-73
2021/06/17 09:25:54;;;;;;;17.93;16.90;;;36.90;72.10;;;;;;5106815;27;20457;-74
2021/06/17 09:28:21;;;;;;;18.67;17.37;;;37.50;72.00;;;;;;5106163;27;20476;-73
2021/06/17 09:30:50;;;;;;;19.47;18.07;;;37.90;70.60;;;;;;5107714;27;20469;-74
2021/06/17 09:33:17;;;;;;;19.20;17.70;;;38.50;68.50;;;;;;5108051;27;20502;-75
2021/06/17 09:35:52;;;;;;;22.60;18.57;;;38.50;68.60;;;;;;5111248;27;20475;-74
2021/06/17 09:38:19;;;;;;;20.43;18.43;;;38.20;68.80;;;;;;5110169;27;20458;-74
2021/06/17 09:40:50;;;;;;;20.17;18.20;;;38.50;69.30;;;;;;5105643;27;20487;-73
2021/06/17 09:43:28;;;;;;;20.27;18.20;;;38.80;68.90;;;;;;5101919;28;20461;-74
2021/06/17 09:46:01;;;;;;;19.27;17.80;;;38.90;68.60;;;;;;5107755;27;20564;-75
2021/06/17 09:48:37;;;;;;;20.13;18.17;;;39.30;69.20;;;;;;5100807;27;20755;-74
2021/06/17 09:51:35;;;;;;;20.47;18.30;;;40.00;66.70;;;;;;5110334;27;20460;-74
2021/06/17 09:54:17;;;;;;;19.97;18.03;;;39.90;65.30;;;;;;5101420;28;20664;-75
2021/06/17 09:56:50;;;;;;;18.73;17.43;;;39.80;66.30;;;;;;5105787;27;20465;-73
2021/06/17 09:59:39;;;;;;;20.03;17.83;;;40.30;64.10;;;;;;5110781;27;20452;-74
2021/06/17 10:02:09;;;;;;;19.20;17.90;;;41.20;61.40;;;;;;5108724;28;20995;-74
2021/06/17 10:04:36;;;;;;;19.63;17.90;;;40.90;59.80;;;;;;5106635;28;20465;-75
2021/06/17 10:07:03;;;;;;;19.63;17.67;;;41.00;61.10;;;;;;5111272;28;20460;-73
2021/06/17 10:09:30;;;;;;;19.57;17.83;;;41.60;59.60;;;;;;5104245;28;20476;-74
2021/06/17 10:11:58;;;;;;;20.00;18.20;;;41.60;58.30;;;;;;5112108;28;20480;-74
2021/06/17 10:14:25;;;;;;;18.40;17.07;;;42.00;58.00;;;;;;5111526;28;20825;-74
2021/06/17 10:16:52;;;;;;;19.73;17.13;;;41.80;55.70;;;;;;5104046;28;20484;-75
2021/06/17 10:19:21;;;;;;;18.97;17.37;;;41.10;55.60;;;;;;5105557;28;20457;-75
2021/06/17 10:21:49;;;;;;;21.67;17.60;;;41.30;55.80;;;;;;5108298;28;20925;-75
2021/06/17 10:24:19;;;;;;;17.33;16.40;;;41.00;55.90;;;;;;5109651;28;20465;-76
2021/06/17 10:26:47;;;;;;;18.40;16.97;;;41.70;56.10;;;;;;5108908;28;20835;-73
2021/06/17 10:29:35;;;;;;;17.60;16.10;;;41.90;56.30;;;;;;5107239;28;20465;-74
2021/06/17 10:32:03;;;;;;;17.93;16.73;;;42.40;56.00;;;;;;5106663;28;20705;-73
2021/06/17 10:34:36;;;;;;;16.43;15.50;;;41.50;54.90;;;;;;5106860;28;20455;-75
2021/06/17 10:37:09;;;;;;;17.27;15.77;;;42.30;54.30;;;;;;5103799;28;20464;-76
2021/06/17 10:39:37;;;;;;;17.40;16.30;;;42.50;52.80;;;;;;5111194;28;20464;-73
2021/06/17 10:42:10;;;;;;;20.33;16.80;;;43.20;52.60;;;;;;5114495;28;20455;-74
2021/06/17 10:44:37;;;;;;;21.17;17.40;;;43.80;51.70;;;;;;5109697;28;20920;-75
2021/06/17 10:47:06;;;;;;;18.97;17.33;;;43.10;50.70;;;;;;5107238;28;20476;-73
2021/06/17 10:50:05;;;;;;;18.47;16.70;;;43.30;50.20;;;;;;5105044;28;21752;-74
2021/06/17 10:52:33;;;;;;;21.97;17.60;;;43.00;50.70;;;;;;5103368;28;20492;-74
2021/06/17 10:55:01;;;;;;;18.70;17.43;;;41.60;51.60;;;;;;5107879;28;20580;-76
2021/06/17 10:57:51;;;;;;;17.90;16.50;;;40.90;52.10;;;;;;5101270;28;20457;-74
2021/06/17 11:00:44;;;;;;;18.37;17.03;;;40.80;52.60;;;;;;5112520;27;20471;-74
2021/06/17 11:03:41;;;;;;;18.40;17.10;;;41.40;51.80;;;;;;5111420;27;21128;-74
2021/06/17 11:06:09;;;;;;;18.40;16.63;;;41.50;52.30;;;;;;5116328;27;20460;-75
2021/06/17 11:08:40;;;;;;;18.50;17.50;;;41.20;50.70;;;;;;5115459;27;20464;-75
2021/06/17 11:11:08;;;;;;;18.10;16.90;;;40.20;49.80;;;;;;5110473;27;20463;-76
2021/06/17 11:13:37;;;;;;;17.67;16.70;;;40.50;50.40;;;;;;5108666;27;20827;-75
2021/06/17 11:16:05;;;;;;;18.90;17.57;;;41.40;50.00;;;;;;5113208;27;20567;-74
2021/06/17 11:19:00;;;;;;;16.97;16.17;;;42.00;50.00;;;;;;5111412;27;20487;-75
2021/06/17 11:21:48;;;;;;;18.00;16.80;;;41.20;50.30;;;;;;5119993;27;20828;-76
2021/06/17 11:24:34;;;;;;;17.93;16.50;;;42.10;48.80;;;;;;5107769;27;20503;-74
2021/06/17 11:27:02;;;;;;;17.63;16.53;;;42.70;49.90;;;;;;5117002;27;20448;-74
2021/06/17 11:29:57;;;;;;;17.33;16.27;;;43.30;48.80;;;;;;5111144;27;20462;-76
2021/06/17 11:32:35;;;;;;;18.90;17.23;;;43.00;48.50;;;;;;5114398;27;20456;-76
2021/06/17 11:35:02;;;;;;;18.77;17.37;;;43.70;48.10;;;;;;5114228;27;20466;-74
2021/06/17 11:37:33;;;;;;;18.80;17.30;;;43.00;49.50;;;;;;5113460;27;20461;-74
2021/06/17 11:40:01;;;;;;;18.67;17.23;;;42.70;49.50;;;;;;5113151;27;20457;-77
2021/06/17 11:42:28;;;;;;;19.43;17.80;;;42.20;49.20;;;;;;5108991;27;20454;-74
2021/06/17 11:45:03;;;;;;;21.30;16.83;;;41.50;51.10;;;;;;5105704;28;20461;-75
2021/06/17 11:47:30;;;;;;;18.23;16.87;;;39.70;53.50;;;;;;5112458;27;20922;-76
2021/06/17 11:50:06;;;;;;;19.23;17.20;;;39.10;53.70;;;;;;5108506;27;20495;-76
2021/06/17 11:52:40;;;;;;;19.10;17.50;;;38.90;56.40;;;;;;5104473;27;20467;-76
2021/06/17 11:55:08;;;;;;;19.70;18.17;;;39.00;54.80;;;;;;5109702;27;21182;-74
2021/06/17 11:57:38;;;;;;;20.10;18.20;;;39.70;53.30;;;;;;5106998;27;20457;-73
2021/06/17 12:00:08;;;;;;;19.30;17.90;;;39.80;51.90;;;;;;5104372;27;20485;-73
2021/06/17 12:02:38;;;;;;;17.97;16.70;;;40.10;52.60;;;;;;5115150;27;20444;-73
2021/06/17 12:05:06;;;;;;;17.73;16.73;;;39.30;51.40;;;;;;5112025;27;20560;-75
2021/06/17 12:07:34;;;;;;;18.20;17.30;;;40.20;49.90;;;;;;5113979;27;20464;-75
2021/06/17 12:10:11;;;;;;;17.87;16.80;;;41.00;49.50;;;;;;5112099;27;20486;-73
2021/06/17 12:12:40;;;;;;;17.33;16.33;;;41.40;49.50;;;;;;5105109;27;20456;-74
2021/06/17 12:15:09;;;;;;;18.60;16.87;;;41.70;48.20;;;;;;5115064;27;20555;-73
2021/06/17 12:17:40;;;;;;;18.50;17.20;;;40.50;49.30;;;;;;5105966;27;20488;-73
2021/06/17 12:20:13;;;;;;;16.93;16.03;;;40.90;49.10;;;;;;5111542;27;21025;-73
2021/06/17 12:22:41;;;;;;;18.57;17.17;;;41.30;47.90;;;;;;5111404;27;20448;-73
2021/06/17 12:25:11;;;;;;;18.70;17.23;;;41.20;48.80;;;;;;5110194;27;20463;-74
2021/06/17 12:27:41;;;;;;;17.90;16.77;;;41.20;47.40;;;;;;5113137;27;20461;-73
2021/06/17 12:30:26;;;;;;;17.00;16.00;;;40.40;48.00;;;;;;5118229;27;20452;-73
2021/06/17 12:32:53;;;;;;;18.03;16.73;;;40.00;48.40;;;;;;5118447;27;20479;-74
2021/06/17 12:35:21;;;;;;;16.90;15.90;;;39.90;49.00;;;;;;5110633;27;20977;-73
2021/06/17 12:37:53;;;;;;;17.80;16.10;;;40.70;48.30;;;;;;5105600;27;20454;-74
2021/06/17 12:40:40;;;;;;;17.23;16.17;;;40.60;49.00;;;;;;5111705;27;20456;-75
2021/06/17 12:43:14;;;;;;;16.93;15.90;;;41.20;48.50;;;;;;5110034;27;20565;-75
2021/06/17 12:45:43;;;;;;;16.80;15.60;;;40.70;47.10;;;;;;5110569;27;20565;-72